VA78 weather

Public forecast

Using degrees Fahrenheit for public forecast. Weather courtesy of forecast.io.

Closest aviation weather report (METAR) to White Oak Farm Heliport

Closest report is Wakefield Municipal Airport, 7.9 nm (14.6 km) SW. Retrieved 2020/08/15 03:29 UTC (30 minutes ago):

KAKQ 150329Z AUTO 10004KT 10SM SCT005 BKN016 OVC023 24/22 A2996

Closest aviation forecast (TAF) to White Oak Farm Heliport

Forecast is more than 6 hours old.

Closest forecast is Felker Army Air Field, 13.2 nm (24.5 km) ENE. Retrieved 2020/08/14 18:00 UTC (10 hours ago):

TAF KFAF 141800Z 1418/1524 05009KT 8000 -SHRA BKN020 BKN080 QNH2988INS TEMPO 1420/1423 VRB10G15KT 4800 -TSRA BKN015CB OVC025 BECMG 1503/1504 02006KT 8000 -SHRA BR BKN010 OVC015 QNH2989INS BECMG 1505/1506 02009KT 6000 -SHRA BR BKN007 OVC010 QNH2990INS BECMG 1512/1513 05012KT 8000 -SHRA BKN015 QNH2991INS TX27/1419Z TN24/1503Z LAST NO AMDS AFT 1421 NEXT 1710